Time;durP1;ratioP1;P1;durP2;ratioP2;P2;SDS_P1;SDS_P2;PMS_P1;PMS_P2;Temp;Humidity;BMP_temperature;BMP_pressure;BME280_temperature;BME280_humidity;BME280_pressure;Samples;Min_cycle;Max_cycle;Signal;HPM_P1;HPM_P2
2023/05/09 00:00:50;;;;;;;42.45;21.63;;;12.90;99.90;;;;;;5085798;28;20546;-64
2023/05/09 00:03:16;;;;;;;42.05;21.90;;;12.90;99.90;;;;;;5072920;28;20695;-66
2023/05/09 00:05:42;;;;;;;41.70;21.80;;;12.90;99.90;;;;;;5072980;28;20063;-67
2023/05/09 00:08:08;;;;;;;42.38;21.63;;;12.90;99.90;;;;;;5073434;28;20047;-64
2023/05/09 00:10:33;;;;;;;40.03;21.23;;;12.80;99.90;;;;;;5075571;28;20920;-65
2023/05/09 00:12:59;;;;;;;41.33;21.05;;;12.80;99.90;;;;;;5072333;28;20387;-64
2023/05/09 00:15:25;;;;;;;39.78;20.42;;;12.80;99.90;;;;;;5075723;28;20023;-64
2023/05/09 00:17:51;;;;;;;41.42;20.92;;;12.80;99.90;;;;;;5073600;28;20042;-66
2023/05/09 00:20:17;;;;;;;43.63;21.05;;;12.80;99.90;;;;;;5083070;28;20407;-64
2023/05/09 00:22:43;;;;;;;40.60;19.05;;;12.70;99.90;;;;;;5088483;28;20035;-64
2023/05/09 00:25:10;;;;;;;38.72;19.25;;;12.70;99.90;;;;;;5093285;28;20031;-66
2023/05/09 00:27:35;;;;;;;38.55;19.17;;;12.70;99.90;;;;;;5083783;28;20040;-64
2023/05/09 00:30:03;;;;;;;36.42;18.73;;;12.70;99.90;;;;;;5086708;28;20392;-65
2023/05/09 00:32:29;;;;;;;40.00;18.77;;;12.70;99.90;;;;;;5088444;28;20127;-64
2023/05/09 00:34:55;;;;;;;36.15;18.60;;;12.70;99.90;;;;;;5082024;28;20028;-64
2023/05/09 00:37:20;;;;;;;34.13;18.17;;;12.70;99.90;;;;;;5079993;28;20102;-65
2023/05/09 00:39:47;;;;;;;33.92;18.08;;;12.70;99.90;;;;;;5081093;28;20063;-67
2023/05/09 00:42:13;;;;;;;34.78;17.75;;;12.70;99.90;;;;;;5083740;28;20030;-67
2023/05/09 00:44:38;;;;;;;38.72;17.88;;;12.80;99.90;;;;;;5090560;28;20024;-64
2023/05/09 00:47:05;;;;;;;32.58;17.83;;;12.80;99.90;;;;;;5096542;28;20439;-64
2023/05/09 00:49:31;;;;;;;32.92;17.98;;;12.70;99.90;;;;;;5083412;28;20262;-68
2023/05/09 00:51:57;;;;;;;31.50;16.98;;;12.70;99.90;;;;;;5090748;28;20034;-66
2023/05/09 00:54:23;;;;;;;39.58;18.73;;;12.70;99.90;;;;;;5080176;28;20043;-64
2023/05/09 00:56:50;;;;;;;35.53;18.08;;;12.70;99.90;;;;;;5081341;28;20135;-65
2023/05/09 00:59:16;;;;;;;32.63;17.75;;;12.70;99.90;;;;;;5093126;27;20039;-66
2023/05/09 01:01:42;;;;;;;38.85;17.40;;;12.70;99.90;;;;;;5077827;28;20037;-66
2023/05/09 01:04:08;;;;;;;33.22;18.55;;;12.60;99.90;;;;;;5058514;28;20028;-64
2023/05/09 01:06:38;;;;;;;35.88;18.50;;;12.60;99.90;;;;;;5076013;28;20032;-64
2023/05/09 01:09:14;;;;;;;37.55;19.73;;;12.60;99.90;;;;;;5064400;28;20032;-65
2023/05/09 01:11:45;;;;;;;44.13;19.35;;;12.60;99.90;;;;;;5080689;28;20119;-65
2023/05/09 01:14:36;;;;;;;45.42;19.75;;;12.60;99.90;;;;;;5079646;28;20027;-64
2023/05/09 01:17:14;;;;;;;42.50;19.65;;;12.60;99.90;;;;;;5076046;28;20040;-65
2023/05/09 01:20:04;;;;;;;36.80;19.40;;;12.50;99.90;;;;;;5078133;28;20482;-64
2023/05/09 01:22:35;;;;;;;36.78;20.15;;;12.40;99.90;;;;;;5080879;28;20081;-65
2023/05/09 01:25:29;;;;;;;42.72;20.30;;;12.40;99.90;;;;;;5075030;28;20463;-64
2023/05/09 01:28:17;;;;;;;39.05;18.83;;;12.20;99.90;;;;;;5073979;28;20205;-66
2023/05/09 01:30:45;;;;;;;36.47;18.92;;;12.00;99.90;;;;;;5080514;28;20714;-65
2023/05/09 01:33:16;;;;;;;40.95;19.85;;;12.00;99.90;;;;;;5080367;28;20062;-64
2023/05/09 01:35:45;;;;;;;39.63;20.38;;;11.90;99.90;;;;;;5078432;28;20147;-64
2023/05/09 01:38:18;;;;;;;49.90;21.88;;;11.90;99.90;;;;;;5078124;28;20073;-66
2023/05/09 01:40:47;;;;;;;49.53;22.33;;;11.90;99.90;;;;;;5077940;28;20032;-66
2023/05/09 01:43:16;;;;;;;46.33;22.63;;;11.90;99.90;;;;;;5074896;28;20032;-64
2023/05/09 01:45:43;;;;;;;50.88;24.05;;;12.00;99.90;;;;;;5074164;28;20039;-64
2023/05/09 01:48:11;;;;;;;48.92;23.77;;;12.10;99.90;;;;;;5077853;28;20152;-67
2023/05/09 01:50:39;;;;;;;52.38;23.95;;;12.10;99.90;;;;;;5081389;28;20119;-66
2023/05/09 01:53:05;;;;;;;49.40;23.42;;;12.20;99.90;;;;;;5076072;28;20031;-65
2023/05/09 01:55:34;;;;;;;49.78;23.92;;;12.20;99.90;;;;;;5077931;28;20028;-66
2023/05/09 01:58:02;;;;;;;52.45;24.35;;;12.20;99.90;;;;;;5082860;28;20436;-63
2023/05/09 02:00:29;;;;;;;49.00;22.80;;;12.30;99.90;;;;;;5084320;28;20027;-64
2023/05/09 02:02:56;;;;;;;50.83;24.17;;;12.30;99.90;;;;;;5088221;28;20028;-65
2023/05/09 02:05:27;;;;;;;50.10;24.33;;;12.30;99.90;;;;;;5079302;28;20056;-64
2023/05/09 02:07:57;;;;;;;56.35;24.25;;;12.30;99.90;;;;;;5083709;28;20039;-66
2023/05/09 02:10:26;;;;;;;52.15;22.80;;;12.30;99.90;;;;;;5090676;28;20036;-64
2023/05/09 02:12:52;;;;;;;52.95;23.77;;;12.30;99.90;;;;;;5092840;28;20059;-65
2023/05/09 02:15:18;;;;;;;48.90;24.75;;;12.30;99.90;;;;;;5081019;28;20032;-66
2023/05/09 02:17:45;;;;;;;51.28;24.42;;;12.30;99.90;;;;;;5089513;28;20053;-64
2023/05/09 02:20:12;;;;;;;53.50;24.23;;;12.40;99.90;;;;;;5092992;28;20027;-65
2023/05/09 02:22:39;;;;;;;37.40;19.58;;;12.40;99.90;;;;;;5086193;28;20117;-65
2023/05/09 02:25:06;;;;;;;51.55;24.33;;;12.40;99.90;;;;;;5086619;28;20133;-64
2023/05/09 02:27:33;;;;;;;51.33;25.27;;;12.20;99.90;;;;;;5088620;28;20034;-66
2023/05/09 02:30:03;;;;;;;42.28;19.77;;;12.30;99.90;;;;;;5087849;28;20032;-64
2023/05/09 02:32:32;;;;;;;45.50;22.67;;;12.20;99.90;;;;;;5080787;28;20035;-65
2023/05/09 02:35:01;;;;;;;48.73;23.80;;;12.20;99.90;;;;;;5080671;28;20024;-65
2023/05/09 02:37:27;;;;;;;48.80;23.55;;;12.10;99.90;;;;;;5090857;28;20089;-64
2023/05/09 02:39:53;;;;;;;50.13;24.00;;;12.20;99.90;;;;;;5091936;28;20115;-66
2023/05/09 02:42:24;;;;;;;53.83;24.50;;;12.10;99.90;;;;;;5088467;28;20082;-67
2023/05/09 02:44:53;;;;;;;55.22;24.48;;;12.20;99.90;;;;;;5078238;28;20056;-64
2023/05/09 02:47:19;;;;;;;55.55;25.92;;;12.20;99.90;;;;;;5089093;28;20036;-67
2023/05/09 02:49:45;;;;;;;56.88;26.10;;;12.20;99.90;;;;;;5087217;28;20455;-65
2023/05/09 02:52:11;;;;;;;41.25;20.17;;;12.20;99.90;;;;;;5081351;28;20111;-65
2023/05/09 02:54:37;;;;;;;50.17;22.20;;;12.10;99.90;;;;;;5085411;28;20048;-65
2023/05/09 02:57:03;;;;;;;53.25;24.48;;;11.90;99.90;;;;;;5085117;28;20397;-67
2023/05/09 02:59:28;;;;;;;54.13;25.70;;;11.80;99.90;;;;;;5076696;28;20032;-64
2023/05/09 03:01:54;;;;;;;56.92;26.20;;;12.00;99.90;;;;;;5088739;28;20040;-65
2023/05/09 03:04:20;;;;;;;54.08;24.92;;;12.00;99.90;;;;;;5080713;28;20063;-67
2023/05/09 03:06:45;;;;;;;54.40;24.83;;;12.10;99.90;;;;;;5096590;28;20127;-64
2023/05/09 03:09:11;;;;;;;53.00;25.08;;;12.10;99.90;;;;;;5080968;28;20055;-71
2023/05/09 03:11:37;;;;;;;56.60;25.63;;;12.10;99.90;;;;;;5073850;28;20366;-67
2023/05/09 03:14:03;;;;;;;53.85;25.67;;;12.10;99.90;;;;;;5082420;28;20028;-67
2023/05/09 03:16:29;;;;;;;53.92;25.50;;;12.10;99.90;;;;;;5094398;28;20024;-67
2023/05/09 03:18:55;;;;;;;57.03;25.73;;;12.10;99.90;;;;;;5098816;28;20031;-67
2023/05/09 03:21:21;;;;;;;57.65;26.92;;;12.00;99.90;;;;;;5108989;28;20113;-69
2023/05/09 03:23:46;;;;;;;54.08;24.85;;;12.00;99.90;;;;;;5100934;28;20402;-67
2023/05/09 03:26:12;;;;;;;53.38;25.83;;;11.90;99.90;;;;;;5096628;28;20039;-66
2023/05/09 03:28:38;;;;;;;61.63;26.40;;;11.90;99.90;;;;;;5099701;28;20428;-67
2023/05/09 03:31:04;;;;;;;64.22;26.98;;;11.80;99.90;;;;;;5105321;28;20030;-67
2023/05/09 03:33:30;;;;;;;59.33;26.40;;;11.80;99.90;;;;;;5097362;28;20041;-67
2023/05/09 03:35:56;;;;;;;53.40;25.17;;;11.80;99.90;;;;;;5109378;28;20143;-68
2023/05/09 03:38:25;;;;;;;61.60;27.88;;;11.80;99.90;;;;;;5091881;28;20460;-70
2023/05/09 03:40:52;;;;;;;60.33;27.60;;;11.80;99.90;;;;;;5090045;28;20123;-66
2023/05/09 03:43:18;;;;;;;60.70;27.83;;;11.80;99.90;;;;;;5090835;28;20057;-68
2023/05/09 03:45:43;;;;;;;60.28;27.77;;;11.80;99.90;;;;;;5106128;28;20641;-69
2023/05/09 03:48:10;;;;;;;62.95;28.85;;;11.80;99.90;;;;;;5071401;28;20085;-68
2023/05/09 03:50:36;;;;;;;60.67;27.40;;;11.80;99.90;;;;;;5097076;28;20054;-67
2023/05/09 03:53:01;;;;;;;62.50;27.83;;;11.80;99.90;;;;;;5106536;28;20032;-68
2023/05/09 03:55:27;;;;;;;60.50;27.92;;;11.80;99.90;;;;;;5078704;28;20028;-66
2023/05/09 03:57:53;;;;;;;57.47;26.17;;;11.70;99.90;;;;;;5087006;28;20023;-67
2023/05/09 04:00:20;;;;;;;61.03;27.30;;;11.70;99.90;;;;;;5081017;28;20060;-65
2023/05/09 04:02:49;;;;;;;73.57;29.65;;;11.70;99.90;;;;;;5084730;28;20132;-68
2023/05/09 04:05:15;;;;;;;60.03;26.38;;;11.70;99.90;;;;;;5074418;28;20019;-64
2023/05/09 04:07:41;;;;;;;58.35;26.45;;;11.60;99.90;;;;;;5090478;28;20028;-67
2023/05/09 04:10:07;;;;;;;55.13;25.80;;;11.70;99.90;;;;;;5095917;27;20039;-65
2023/05/09 04:12:33;;;;;;;56.40;25.38;;;11.60;99.90;;;;;;5087637;28;20050;-63
2023/05/09 04:14:59;;;;;;;58.13;24.38;;;11.60;99.90;;;;;;5090217;28;20441;-65
2023/05/09 04:17:25;;;;;;;51.58;23.25;;;11.50;99.90;;;;;;5087186;28;20043;-69
2023/05/09 04:19:50;;;;;;;47.15;22.17;;;11.50;99.90;;;;;;5089682;28;20427;-65
2023/05/09 04:22:16;;;;;;;46.03;21.83;;;11.50;99.90;;;;;;5087890;28;20039;-66
2023/05/09 04:24:42;;;;;;;47.33;21.35;;;11.50;99.90;;;;;;5087295;28;20227;-64
2023/05/09 04:27:08;;;;;;;46.90;21.88;;;11.50;99.90;;;;;;5082343;28;20479;-63
2023/05/09 04:29:34;;;;;;;46.17;21.45;;;11.60;99.90;;;;;;5099261;28;20772;-64
2023/05/09 04:32:00;;;;;;;48.60;21.35;;;11.50;99.90;;;;;;5096445;28;20435;-64
2023/05/09 04:34:26;;;;;;;45.20;20.65;;;11.50;99.90;;;;;;5095590;28;20028;-69
2023/05/09 04:36:52;;;;;;;41.70;20.10;;;11.50;99.90;;;;;;5087875;28;20108;-65
2023/05/09 04:39:18;;;;;;;37.28;18.77;;;11.50;99.90;;;;;;5088006;28;20036;-64
2023/05/09 04:41:46;;;;;;;38.70;19.02;;;11.50;99.90;;;;;;5081642;28;20032;-66
2023/05/09 04:44:12;;;;;;;41.92;19.08;;;11.50;99.90;;;;;;5096763;28;20107;-63
2023/05/09 04:46:38;;;;;;;34.92;18.02;;;11.60;99.90;;;;;;5100357;28;20039;-63
2023/05/09 04:49:04;;;;;;;36.83;18.20;;;11.60;99.90;;;;;;5086897;28;20032;-65
2023/05/09 04:51:29;;;;;;;33.38;16.70;;;11.60;99.90;;;;;;5086934;28;20068;-64
2023/05/09 04:53:55;;;;;;;43.40;18.30;;;11.60;99.90;;;;;;5087343;28;20067;-63
2023/05/09 04:56:23;;;;;;;37.95;18.27;;;11.60;99.90;;;;;;5092115;28;20052;-65
2023/05/09 04:58:49;;;;;;;38.97;18.08;;;11.60;99.90;;;;;;5089841;28;20048;-64
2023/05/09 05:01:15;;;;;;;35.50;17.42;;;11.60;99.90;;;;;;5085687;28;20673;-64
2023/05/09 05:03:41;;;;;;;39.92;16.45;;;11.60;99.90;;;;;;5086710;28;20058;-65
2023/05/09 05:06:07;;;;;;;43.47;16.98;;;11.70;99.90;;;;;;5086423;28;20040;-67
2023/05/09 05:08:32;;;;;;;35.10;16.92;;;11.70;99.90;;;;;;5087236;28;20024;-64
2023/05/09 05:10:58;;;;;;;34.63;16.67;;;11.80;99.90;;;;;;5084744;28;20046;-62
2023/05/09 05:13:24;;;;;;;35.72;18.05;;;11.80;99.90;;;;;;5087759;28;20154;-62
2023/05/09 05:15:49;;;;;;;32.67;16.20;;;11.80;99.90;;;;;;5084872;28;20085;-62
2023/05/09 05:18:15;;;;;;;36.70;17.20;;;11.90;99.90;;;;;;5085712;28;20139;-62
2023/05/09 05:20:41;;;;;;;36.10;16.85;;;11.90;99.90;;;;;;5086831;28;20455;-63
2023/05/09 05:23:07;;;;;;;34.13;16.95;;;12.00;99.90;;;;;;5090280;28;20032;-63
2023/05/09 05:25:33;;;;;;;35.58;17.88;;;12.10;99.90;;;;;;5092353;28;20124;-63
2023/05/09 05:27:59;;;;;;;42.45;19.10;;;12.00;99.90;;;;;;5092998;28;20496;-65
2023/05/09 05:30:24;;;;;;;42.28;18.10;;;12.10;99.90;;;;;;5092349;28;20063;-66
2023/05/09 05:32:50;;;;;;;48.03;18.08;;;12.20;99.90;;;;;;5086919;28;20024;-63
2023/05/09 05:35:16;;;;;;;36.25;17.27;;;12.30;99.90;;;;;;5091437;28;20461;-64
2023/05/09 05:37:43;;;;;;;34.38;17.15;;;12.50;99.90;;;;;;5092298;28;20043;-65
2023/05/09 05:40:09;;;;;;;37.33;16.92;;;12.70;99.90;;;;;;5094357;28;20032;-65
2023/05/09 05:42:34;;;;;;;40.55;17.42;;;12.80;99.90;;;;;;5097822;28;20476;-64
2023/05/09 05:45:03;;;;;;;34.42;17.48;;;12.80;99.90;;;;;;5095230;28;20024;-65
2023/05/09 05:47:35;;;;;;;37.03;17.30;;;12.80;99.90;;;;;;5088381;28;20032;-68
2023/05/09 05:50:05;;;;;;;40.78;16.23;;;12.90;99.90;;;;;;5082911;28;20059;-65
2023/05/09 05:52:30;;;;;;;31.90;16.98;;;13.20;99.90;;;;;;5083798;28;20078;-67
2023/05/09 05:54:56;;;;;;;33.08;16.70;;;13.40;99.90;;;;;;5093594;28;21623;-65
2023/05/09 05:57:22;;;;;;;34.88;16.17;;;13.60;99.90;;;;;;5090726;28;20434;-64
2023/05/09 05:59:48;;;;;;;33.67;16.42;;;13.70;99.90;;;;;;5088215;28;20032;-64
2023/05/09 06:02:15;;;;;;;29.90;15.88;;;13.80;99.90;;;;;;5090832;28;20070;-63
2023/05/09 06:04:41;;;;;;;31.25;16.40;;;14.00;99.90;;;;;;5084668;28;20039;-64
2023/05/09 06:07:06;;;;;;;32.85;16.98;;;14.10;99.90;;;;;;5090491;28;20051;-65
2023/05/09 06:09:32;;;;;;;32.75;17.00;;;14.20;99.90;;;;;;5088844;28;20424;-69
2023/05/09 06:11:58;;;;;;;32.55;16.45;;;14.40;99.90;;;;;;5080445;28;20520;-64
2023/05/09 06:14:24;;;;;;;35.78;17.33;;;14.50;99.90;;;;;;5092923;28;20610;-65
2023/05/09 06:16:50;;;;;;;33.92;17.15;;;14.60;99.90;;;;;;5089711;28;20036;-66
2023/05/09 06:19:17;;;;;;;33.72;16.80;;;14.70;99.90;;;;;;5084651;28;20039;-67
2023/05/09 06:21:42;;;;;;;38.13;17.45;;;14.60;99.90;;;;;;5089843;28;20032;-64
2023/05/09 06:24:08;;;;;;;31.08;16.98;;;14.60;99.90;;;;;;5085398;28;20024;-65
2023/05/09 06:26:34;;;;;;;35.33;18.42;;;14.70;99.90;;;;;;5089835;28;20072;-67
2023/05/09 06:29:00;;;;;;;37.58;17.30;;;14.60;99.90;;;;;;5090339;28;20032;-63
2023/05/09 06:31:26;;;;;;;35.75;18.45;;;14.60;99.90;;;;;;5091402;28;20487;-65
2023/05/09 06:33:52;;;;;;;38.47;18.08;;;14.80;99.90;;;;;;5088155;28;20031;-66
2023/05/09 06:36:17;;;;;;;32.33;17.55;;;14.90;99.90;;;;;;5090129;28;20055;-64
2023/05/09 06:38:43;;;;;;;34.53;18.15;;;15.00;99.90;;;;;;5083602;28;20051;-65
2023/05/09 06:41:08;;;;;;;35.55;18.42;;;14.90;99.90;;;;;;5084700;28;20028;-65
2023/05/09 06:43:34;;;;;;;33.65;17.50;;;14.80;99.90;;;;;;5095698;28;20035;-67
2023/05/09 06:46:00;;;;;;;34.75;18.35;;;14.60;99.90;;;;;;5087760;28;20024;-64
2023/05/09 06:48:25;;;;;;;35.70;18.33;;;14.60;99.90;;;;;;5088037;28;20805;-66
2023/05/09 06:50:51;;;;;;;36.58;17.90;;;14.80;99.90;;;;;;5071530;28;20032;-73
2023/05/09 06:53:17;;;;;;;37.10;17.83;;;15.20;99.90;;;;;;5087258;28;20483;-65
2023/05/09 06:55:43;;;;;;;35.28;18.52;;;15.40;99.90;;;;;;5088153;28;20036;-67
2023/05/09 06:58:09;;;;;;;36.60;19.00;;;15.40;99.90;;;;;;5090353;28;20024;-67
2023/05/09 07:00:35;;;;;;;33.47;18.08;;;15.60;99.90;;;;;;5094397;28;20111;-71
2023/05/09 07:03:01;;;;;;;33.17;17.95;;;15.80;99.90;;;;;;5089556;28;20118;-67
2023/05/09 07:05:27;;;;;;;37.67;18.27;;;15.90;99.90;;;;;;5085964;28;20039;-65
2023/05/09 07:07:53;;;;;;;37.08;18.58;;;16.00;99.90;;;;;;5087405;28;20034;-63
2023/05/09 07:10:21;;;;;;;31.83;18.08;;;16.10;99.90;;;;;;5088139;28;20028;-65
2023/05/09 07:12:47;;;;;;;32.80;18.38;;;16.00;99.90;;;;;;5090042;28;20086;-64
2023/05/09 07:15:12;;;;;;;36.80;19.13;;;16.20;99.90;;;;;;5086502;28;20442;-68
2023/05/09 07:17:39;;;;;;;33.20;18.77;;;16.40;99.90;;;;;;5103587;27;20040;-65
2023/05/09 07:20:05;;;;;;;39.78;19.48;;;16.40;99.90;;;;;;5093095;28;20039;-67
2023/05/09 07:22:31;;;;;;;40.47;20.15;;;16.40;99.90;;;;;;5098536;28;20039;-71
2023/05/09 07:24:57;;;;;;;36.97;19.15;;;16.40;99.90;;;;;;5100669;28;20035;-67
2023/05/09 07:27:23;;;;;;;37.92;19.83;;;16.50;99.90;;;;;;5066032;28;20487;-65
2023/05/09 07:29:51;;;;;;;38.50;20.50;;;16.60;99.90;;;;;;5090478;28;20031;-67
2023/05/09 07:32:20;;;;;;;38.45;19.35;;;16.60;99.90;;;;;;5097165;28;20028;-67
2023/05/09 07:34:45;;;;;;;40.20;19.95;;;16.50;99.90;;;;;;5107780;28;20031;-65
2023/05/09 07:37:11;;;;;;;37.53;19.95;;;16.50;99.90;;;;;;5104211;28;20525;-69
2023/05/09 07:39:37;;;;;;;35.22;18.83;;;16.40;99.90;;;;;;5102013;28;20032;-71
2023/05/09 07:42:03;;;;;;;40.15;19.10;;;16.10;99.90;;;;;;5095681;28;20111;-66
2023/05/09 07:44:28;;;;;;;36.97;18.52;;;16.20;99.90;;;;;;5091635;28;20357;-68
2023/05/09 07:46:54;;;;;;;36.45;19.20;;;16.40;99.90;;;;;;5087895;28;20067;-66
2023/05/09 07:49:20;;;;;;;37.63;19.30;;;16.60;99.90;;;;;;5088736;28;20088;-65
2023/05/09 07:51:46;;;;;;;39.67;18.80;;;16.60;99.90;;;;;;5087798;28;20032;-67
2023/05/09 07:54:12;;;;;;;33.83;19.02;;;16.60;99.90;;;;;;5088272;28;20044;-66
2023/05/09 07:56:38;;;;;;;38.90;19.92;;;16.80;99.90;;;;;;5086809;28;20465;-70
2023/05/09 07:59:04;;;;;;;34.40;18.15;;;17.10;99.90;;;;;;5089741;28;20024;-66
2023/05/09 08:01:29;;;;;;;34.42;18.60;;;17.30;99.90;;;;;;5095712;28;20477;-68
2023/05/09 08:03:55;;;;;;;32.60;17.83;;;17.40;99.90;;;;;;5087214;28;20028;-65
2023/05/09 08:06:20;;;;;;;34.90;18.30;;;17.60;99.90;;;;;;5088451;28;20023;-68
2023/05/09 08:08:46;;;;;;;33.40;17.67;;;17.60;99.90;;;;;;5067444;28;20111;-67
2023/05/09 08:11:12;;;;;;;28.23;16.52;;;17.60;99.90;;;;;;5091007;28;20027;-65
2023/05/09 08:13:37;;;;;;;28.77;16.10;;;17.70;99.90;;;;;;5105207;28;20030;-68
2023/05/09 08:16:03;;;;;;;23.88;14.50;;;17.90;99.90;;;;;;5100986;28;20039;-66
2023/05/09 08:18:29;;;;;;;26.42;15.68;;;18.10;99.90;;;;;;5100228;28;20047;-67
2023/05/09 08:20:55;;;;;;;28.20;15.18;;;18.30;99.90;;;;;;5107381;28;20885;-65
2023/05/09 08:23:21;;;;;;;31.17;16.58;;;18.40;99.90;;;;;;5108019;28;20464;-67
2023/05/09 08:25:46;;;;;;;26.20;13.45;;;18.50;99.90;;;;;;5104584;28;20140;-66
2023/05/09 08:28:12;;;;;;;22.50;13.05;;;18.50;99.90;;;;;;5087307;28;20465;-68
2023/05/09 08:30:38;;;;;;;21.40;11.73;;;18.60;99.90;;;;;;5075405;28;20035;-69
2023/05/09 08:33:04;;;;;;;20.23;11.75;;;18.60;99.90;;;;;;5103977;28;20040;-67
2023/05/09 08:35:29;;;;;;;27.67;11.88;;;18.80;99.90;;;;;;5105943;28;20031;-66
2023/05/09 08:37:55;;;;;;;20.80;11.77;;;18.70;99.90;;;;;;5090543;28;20032;-66
2023/05/09 08:40:20;;;;;;;25.67;11.85;;;18.80;99.90;;;;;;5098688;28;20037;-68
2023/05/09 08:42:48;;;;;;;19.98;11.88;;;18.90;99.90;;;;;;5089122;28;20031;-66
2023/05/09 08:45:15;;;;;;;21.23;11.77;;;19.00;99.90;;;;;;5085473;28;20064;-67
2023/05/09 08:47:41;;;;;;;19.33;11.05;;;19.10;99.90;;;;;;5105186;28;20620;-68
2023/05/09 08:50:08;;;;;;;19.00;11.07;;;19.20;99.90;;;;;;5101156;28;20024;-67
2023/05/09 08:52:34;;;;;;;16.75;10.50;;;19.40;99.90;;;;;;5096655;28;20054;-67
2023/05/09 08:55:03;;;;;;;15.55;9.32;;;19.60;99.90;;;;;;5089543;28;20047;-65
2023/05/09 08:57:32;;;;;;;23.83;9.60;;;19.80;99.90;;;;;;5096917;28;20046;-66
2023/05/09 08:59:58;;;;;;;15.90;9.70;;;19.80;99.90;;;;;;5087774;28;20125;-67
2023/05/09 09:02:24;;;;;;;19.30;10.85;;;19.90;99.90;;;;;;5079173;28;20047;-66
2023/05/09 09:04:50;;;;;;;17.95;11.43;;;19.90;99.90;;;;;;5093400;28;20020;-67
2023/05/09 09:07:17;;;;;;;18.52;9.75;;;19.80;99.90;;;;;;5098698;28;20036;-65
2023/05/09 09:09:47;;;;;;;18.05;9.45;;;19.70;99.90;;;;;;5091127;28;20050;-66
2023/05/09 09:12:15;;;;;;;19.90;8.77;;;19.70;99.90;;;;;;5091007;28;20028;-65
2023/05/09 09:14:46;;;;;;;15.20;8.55;;;19.70;99.90;;;;;;5093419;28;20766;-66
2023/05/09 09:17:18;;;;;;;11.57;7.15;;;19.50;99.90;;;;;;5091242;28;20505;-65
2023/05/09 09:19:48;;;;;;;11.48;6.82;;;19.70;99.90;;;;;;5094155;28;20115;-65
2023/05/09 09:22:17;;;;;;;14.32;7.95;;;19.80;99.90;;;;;;5087619;28;20036;-65
2023/05/09 09:24:43;;;;;;;13.05;7.20;;;20.20;99.90;;;;;;5090579;28;20528;-66
2023/05/09 09:27:08;;;;;;;15.40;7.13;;;20.20;99.80;;;;;;5089218;28;20035;-67
2023/05/09 09:29:34;;;;;;;12.05;7.60;;;20.40;98.80;;;;;;5091069;28;20024;-67
2023/05/09 09:32:05;;;;;;;14.55;7.57;;;20.40;98.30;;;;;;5090499;28;20035;-66
2023/05/09 09:34:31;;;;;;;13.45;8.50;;;20.40;98.90;;;;;;5090131;28;20032;-66
2023/05/09 09:36:57;;;;;;;12.90;7.95;;;20.40;98.70;;;;;;5090218;28;20161;-68
2023/05/09 09:39:23;;;;;;;18.02;7.65;;;20.40;99.90;;;;;;5090996;28;20032;-68
2023/05/09 09:41:49;;;;;;;17.70;8.57;;;20.60;99.50;;;;;;5090493;28;20032;-67
2023/05/09 09:44:20;;;;;;;16.02;8.65;;;20.70;98.70;;;;;;5097436;28;20085;-67
2023/05/09 09:46:53;;;;;;;19.40;8.48;;;20.80;99.60;;;;;;5089817;28;20887;-66
2023/05/09 09:49:25;;;;;;;14.98;8.20;;;21.10;99.40;;;;;;5084312;28;20020;-67
2023/05/09 09:51:56;;;;;;;12.45;8.07;;;21.10;97.70;;;;;;5089994;28;20043;-65
2023/05/09 09:54:25;;;;;;;13.38;7.53;;;20.90;99.40;;;;;;5083853;28;20665;-66
2023/05/09 09:56:53;;;;;;;12.48;7.60;;;20.90;97.80;;;;;;5085415;28;20044;-65
2023/05/09 09:59:21;;;;;;;13.75;8.30;;;20.90;98.80;;;;;;5074612;28;20035;-68
2023/05/09 10:01:58;;;;;;;13.27;8.23;;;21.10;98.90;;;;;;5090892;28;20032;-68
2023/05/09 10:04:26;;;;;;;15.10;7.55;;;20.90;98.80;;;;;;5083347;28;20032;-69
2023/05/09 10:06:52;;;;;;;11.85;7.55;;;21.10;97.60;;;;;;5086525;28;20043;-68
2023/05/09 10:09:20;;;;;;;12.43;7.25;;;21.30;97.40;;;;;;5088452;28;20435;-69
2023/05/09 10:11:50;;;;;;;14.23;8.35;;;21.20;97.80;;;;;;5089804;28;20101;-70
2023/05/09 10:14:22;;;;;;;13.10;7.78;;;21.30;97.00;;;;;;5082995;28;20388;-69
2023/05/09 10:16:48;;;;;;;11.32;6.50;;;21.40;97.50;;;;;;5088674;28;20388;-69
2023/05/09 10:19:19;;;;;;;12.77;7.55;;;21.60;96.40;;;;;;5088776;28;20406;-67
2023/05/09 10:21:57;;;;;;;13.85;8.15;;;21.80;97.50;;;;;;5085251;28;20036;-70
2023/05/09 10:24:40;;;;;;;12.48;7.40;;;21.60;95.00;;;;;;5082771;28;20040;-68
2023/05/09 10:27:10;;;;;;;11.20;6.68;;;21.40;95.50;;;;;;5081845;28;20051;-69
2023/05/09 10:29:45;;;;;;;11.57;7.38;;;21.70;97.00;;;;;;5091103;28;20051;-64
2023/05/09 10:32:51;;;;;;;12.25;6.93;;;22.00;96.50;;;;;;5090108;28;20593;-65
2023/05/09 10:35:19;;;;;;;13.32;6.60;;;22.10;95.90;;;;;;5085912;28;20059;-66
2023/05/09 10:37:45;;;;;;;11.50;7.18;;;22.00;95.20;;;;;;5089725;28;20144;-69
2023/05/09 10:40:14;;;;;;;14.10;6.65;;;22.10;93.70;;;;;;5091681;28;20043;-65
2023/05/09 10:42:43;;;;;;;9.73;6.60;;;22.30;94.50;;;;;;5095071;28;20032;-66
2023/05/09 10:45:12;;;;;;;18.80;8.63;;;22.40;94.60;;;;;;5093226;28;20629;-65
2023/05/09 10:47:40;;;;;;;14.20;8.10;;;22.30;96.00;;;;;;5089681;28;20082;-65
2023/05/09 10:50:14;;;;;;;11.88;7.32;;;22.50;95.10;;;;;;5089016;28;20086;-68
2023/05/09 10:53:02;;;;;;;13.10;7.50;;;22.30;95.80;;;;;;5089934;28;20028;-69
2023/05/09 10:56:00;;;;;;;15.07;7.55;;;22.30;94.60;;;;;;5066285;28;20416;-66
2023/05/09 10:58:32;;;;;;;9.75;6.65;;;22.10;95.30;;;;;;5094228;28;20063;-65
2023/05/09 11:01:00;;;;;;;11.20;7.30;;;21.40;99.10;;;;;;5096850;28;20077;-65
2023/05/09 11:03:27;;;;;;;12.52;8.43;;;21.30;96.90;;;;;;5100679;28;20040;-67
2023/05/09 11:05:55;;;;;;;14.38;8.35;;;21.40;98.60;;;;;;5099674;28;20064;-66
2023/05/09 11:08:28;;;;;;;12.35;7.40;;;21.40;97.40;;;;;;5097822;28;20059;-66
2023/05/09 11:10:56;;;;;;;10.55;7.07;;;21.10;99.90;;;;;;5087198;28;20027;-66
2023/05/09 11:13:24;;;;;;;13.70;7.38;;;20.80;98.80;;;;;;5099970;28;20288;-66
2023/05/09 11:15:52;;;;;;;13.65;7.80;;;20.80;99.90;;;;;;5079307;28;20637;-66
2023/05/09 11:18:18;;;;;;;14.05;8.45;;;20.80;99.90;;;;;;5082812;28;20036;-64
2023/05/09 11:20:48;;;;;;;15.68;8.38;;;21.10;99.90;;;;;;5100218;28;20038;-64
2023/05/09 11:23:18;;;;;;;13.43;8.65;;;21.60;99.90;;;;;;5094337;28;20134;-68
2023/05/09 11:25:48;;;;;;;13.25;7.68;;;21.30;98.90;;;;;;5100791;28;20044;-67
2023/05/09 11:28:35;;;;;;;15.82;7.78;;;21.50;99.90;;;;;;5089285;28;20081;-65
2023/05/09 11:31:15;;;;;;;12.90;7.30;;;21.80;99.90;;;;;;5086401;28;21650;-66
2023/05/09 11:33:43;;;;;;;15.75;7.50;;;22.00;96.70;;;;;;5088808;28;20024;-67
2023/05/09 11:36:19;;;;;;;17.48;7.03;;;22.10;96.90;;;;;;5091672;28;20103;-67
2023/05/09 11:38:58;;;;;;;11.15;6.43;;;22.00;99.90;;;;;;5095608;28;20062;-66
2023/05/09 11:41:24;;;;;;;11.27;6.07;;;22.00;98.30;;;;;;5082052;28;20077;-65
2023/05/09 11:43:50;;;;;;;13.68;7.15;;;22.20;99.80;;;;;;5075580;28;20027;-67
2023/05/09 11:46:16;;;;;;;10.27;6.55;;;22.30;96.30;;;;;;5088732;28;20032;-66
2023/05/09 11:48:42;;;;;;;14.52;6.85;;;22.40;99.70;;;;;;5091648;28;20410;-66
2023/05/09 11:51:16;;;;;;;10.50;6.15;;;22.10;98.40;;;;;;5081846;28;20644;-65
2023/05/09 11:53:45;;;;;;;13.05;5.85;;;21.40;99.60;;;;;;5092288;28;20460;-67
2023/05/09 11:56:12;;;;;;;12.75;6.75;;;21.50;99.90;;;;;;5089813;28;20082;-66
2023/05/09 11:58:38;;;;;;;17.58;6.50;;;21.30;99.90;;;;;;5093612;28;20138;-65
2023/05/09 12:01:05;;;;;;;9.77;6.10;;;21.60;99.90;;;;;;5088133;28;20442;-65
2023/05/09 12:03:32;;;;;;;12.13;7.72;;;22.10;99.90;;;;;;5095945;28;20023;-65
2023/05/09 12:05:57;;;;;;;14.65;7.90;;;22.00;99.90;;;;;;5089859;28;20047;-67
2023/05/09 12:08:24;;;;;;;11.07;7.53;;;21.50;99.90;;;;;;5083352;28;20024;-65
2023/05/09 12:10:50;;;;;;;12.35;7.85;;;21.20;99.90;;;;;;5099091;28;20042;-68
2023/05/09 12:13:18;;;;;;;13.98;7.60;;;21.10;99.90;;;;;;5093096;28;20039;-66
2023/05/09 12:15:43;;;;;;;11.85;7.05;;;21.20;99.90;;;;;;5084246;28;20055;-65
2023/05/09 12:18:09;;;;;;;17.08;8.20;;;21.40;99.90;;;;;;5088909;28;20615;-65
2023/05/09 12:20:43;;;;;;;11.23;6.93;;;21.50;99.90;;;;;;5086851;28;20015;-65
2023/05/09 12:23:11;;;;;;;12.55;6.63;;;21.40;99.90;;;;;;5078503;28;20024;-63
2023/05/09 12:25:36;;;;;;;12.82;8.25;;;21.30;99.90;;;;;;5078135;28;20031;-65
2023/05/09 12:28:02;;;;;;;14.23;8.48;;;20.80;99.90;;;;;;5087259;28;20383;-67
2023/05/09 12:30:28;;;;;;;13.77;8.02;;;20.90;99.90;;;;;;5073242;28;20033;-65
2023/05/09 12:32:55;;;;;;;13.65;8.18;;;21.20;99.90;;;;;;5080136;28;20032;-68